createdAt,value
2023-04-19T00:01:46.356Z,2.90
2023-04-19T00:04:15.261Z,3.17
2023-04-19T00:06:42.322Z,3.25
2023-04-19T00:09:09.303Z,3.00
2023-04-19T00:11:35.823Z,3.33
2023-04-19T00:14:02.284Z,3.22
2023-04-19T00:16:28.839Z,3.33
2023-04-19T00:18:55.476Z,3.47
2023-04-19T00:21:22.003Z,3.40
2023-04-19T00:23:48.437Z,3.92
2023-04-19T00:26:15.905Z,3.70
2023-04-19T00:28:42.574Z,3.42
2023-04-19T00:31:09.104Z,3.60
2023-04-19T00:33:35.647Z,3.22
2023-04-19T00:36:02.358Z,3.70
2023-04-19T00:38:28.871Z,3.47
2023-04-19T00:40:55.821Z,3.83
2023-04-19T00:43:22.266Z,7.72
2023-04-19T00:45:58.648Z,4.38
2023-04-19T00:48:25.469Z,4.53
2023-04-19T00:50:51.958Z,6.30
2023-04-19T00:53:18.450Z,6.18
2023-04-19T00:56:02.828Z,6.00
2023-04-19T00:58:31.555Z,4.57
2023-04-19T01:00:58.256Z,3.80
2023-04-19T01:03:27.699Z,4.05
2023-04-19T01:05:55.577Z,3.90
2023-04-19T01:08:24.311Z,3.50
2023-04-19T01:10:51.118Z,3.88
2023-04-19T01:13:17.567Z,3.85
2023-04-19T01:15:44.169Z,3.58
2023-04-19T01:18:11.318Z,3.70
2023-04-19T01:20:37.781Z,4.18
2023-04-19T01:23:04.251Z,4.38
2023-04-19T01:25:31.014Z,4.22
2023-04-19T01:27:57.461Z,3.88
2023-04-19T01:30:23.959Z,3.92
2023-04-19T01:32:50.658Z,4.40
2023-04-19T01:35:21.414Z,4.47
2023-04-19T01:37:47.863Z,3.95
2023-04-19T01:40:14.405Z,4.00
2023-04-19T01:42:40.852Z,4.18
2023-04-19T01:45:07.503Z,4.30
2023-04-19T01:47:34.030Z,4.55
2023-04-19T01:50:00.761Z,4.40
2023-04-19T01:52:27.217Z,4.88
2023-04-19T01:54:53.642Z,4.22
2023-04-19T01:57:20.555Z,3.97
2023-04-19T01:59:47.051Z,5.10
2023-04-19T02:02:13.561Z,4.70
2023-04-19T02:04:40.107Z,4.90
2023-04-19T02:07:06.581Z,5.07
2023-04-19T02:09:35.647Z,5.00
2023-04-19T02:12:02.359Z,5.65
2023-04-19T02:14:28.806Z,5.32
2023-04-19T02:16:55.883Z,5.55
2023-04-19T02:19:22.496Z,6.15
2023-04-19T02:21:49.033Z,5.35
2023-04-19T02:24:15.914Z,5.82
2023-04-19T02:26:42.513Z,5.85
2023-04-19T02:29:09.019Z,6.15
2023-04-19T02:31:37.769Z,6.22
2023-04-19T02:34:04.341Z,5.78
2023-04-19T02:36:30.819Z,5.78
2023-04-19T02:38:59.335Z,5.85
2023-04-19T02:41:25.850Z,5.40
2023-04-19T02:43:52.339Z,5.85
2023-04-19T02:46:19.149Z,5.43
2023-04-19T02:48:46.373Z,5.95
2023-04-19T02:51:16.936Z,6.20
2023-04-19T02:53:43.461Z,6.18
2023-04-19T02:56:09.836Z,5.78
2023-04-19T02:58:36.175Z,6.03
2023-04-19T03:01:02.555Z,6.32
2023-04-19T03:03:31.500Z,6.43
2023-04-19T03:05:58.166Z,5.93
2023-04-19T03:08:24.601Z,6.55
2023-04-19T03:10:51.167Z,6.47
2023-04-19T03:13:17.508Z,6.72
2023-04-19T03:15:43.878Z,7.60
2023-04-19T03:18:10.378Z,7.63
2023-04-19T03:20:36.762Z,7.20
2023-04-19T03:23:03.144Z,6.30
2023-04-19T03:25:29.552Z,7.05
2023-04-19T03:27:56.282Z,6.20
2023-04-19T03:30:22.676Z,6.50
2023-04-19T03:32:49.175Z,6.78
2023-04-19T03:35:15.696Z,7.68
2023-04-19T03:37:43.461Z,7.00
2023-04-19T03:40:10.083Z,6.65
2023-04-19T03:42:36.488Z,7.50
2023-04-19T03:45:02.949Z,7.05
2023-04-19T03:47:29.445Z,6.72
2023-04-19T03:49:56.084Z,6.95
2023-04-19T03:52:22.641Z,6.85
2023-04-19T03:54:48.989Z,6.53
2023-04-19T03:57:17.606Z,6.82
2023-04-19T03:59:44.080Z,6.80
2023-04-19T04:02:10.577Z,6.97
2023-04-19T04:04:37.239Z,7.05
2023-04-19T04:07:03.658Z,7.00
2023-04-19T04:09:30.256Z,7.78
2023-04-19T04:11:56.810Z,7.60
2023-04-19T04:14:23.735Z,7.45
2023-04-19T04:16:50.525Z,7.30
2023-04-19T04:19:21.850Z,6.90
2023-04-19T04:21:49.161Z,7.55
2023-04-19T04:24:17.810Z,7.30
2023-04-19T04:26:44.216Z,7.60
2023-04-19T04:29:10.663Z,10.50
2023-04-19T04:31:37.134Z,12.35
2023-04-19T04:34:03.507Z,11.65
2023-04-19T04:36:30.000Z,9.75
2023-04-19T04:38:57.183Z,10.23
2023-04-19T04:41:23.635Z,10.50
2023-04-19T04:44:04.561Z,12.50
2023-04-19T04:46:37.631Z,12.88
2023-04-19T04:49:04.164Z,10.50
2023-04-19T04:51:31.783Z,8.57
2023-04-19T04:53:58.522Z,8.82
2023-04-19T04:56:26.051Z,10.65
2023-04-19T04:58:54.944Z,11.23
2023-04-19T05:01:22.066Z,11.07
2023-04-19T05:03:48.478Z,10.77
2023-04-19T05:06:14.919Z,9.93
2023-04-19T05:08:41.365Z,9.38
2023-04-19T05:11:08.523Z,10.02
2023-04-19T05:13:34.886Z,9.82
2023-04-19T05:16:01.320Z,10.65
2023-04-19T05:18:27.698Z,10.88
2023-04-19T05:20:54.286Z,11.82
2023-04-19T05:23:21.259Z,11.50
2023-04-19T05:25:47.792Z,11.65
2023-04-19T05:28:14.156Z,12.45
2023-04-19T05:30:40.734Z,12.35
2023-04-19T05:33:07.328Z,13.10
2023-04-19T05:35:33.853Z,13.32
2023-04-19T05:38:00.383Z,13.02
2023-04-19T05:40:26.861Z,13.32
2023-04-19T05:42:53.345Z,13.63
2023-04-19T05:45:19.813Z,13.48
2023-04-19T05:47:46.357Z,13.23
2023-04-19T05:50:13.118Z,12.80
2023-04-19T05:52:39.585Z,13.23
2023-04-19T05:55:06.811Z,12.57
2023-04-19T05:57:33.372Z,12.02
2023-04-19T06:02:27.324Z,12.20
2023-04-19T06:04:54.169Z,12.73
2023-04-19T06:07:30.860Z,13.80
2023-04-19T06:09:59.291Z,12.57
2023-04-19T06:12:26.054Z,12.88
2023-04-19T06:14:52.699Z,12.63
2023-04-19T06:17:25.587Z,13.40
2023-04-19T06:19:52.697Z,12.93
2023-04-19T06:22:19.229Z,13.20
2023-04-19T06:24:46.141Z,12.68
2023-04-19T06:27:12.755Z,13.73
2023-04-19T06:29:39.298Z,13.50
2023-04-19T06:32:05.780Z,13.15
2023-04-19T06:34:32.315Z,13.05
2023-04-19T06:36:58.766Z,13.30
2023-04-19T06:39:25.304Z,12.93
2023-04-19T06:41:53.894Z,13.90
2023-04-19T06:44:20.738Z,13.32
2023-04-19T06:46:47.195Z,13.60
2023-04-19T06:49:13.659Z,13.77
2023-04-19T06:51:40.252Z,12.30
2023-04-19T06:54:07.673Z,13.73
2023-04-19T06:56:45.855Z,13.05
2023-04-19T06:59:17.260Z,11.98
2023-04-19T07:01:44.294Z,12.40
2023-04-19T07:04:11.545Z,12.40
2023-04-19T07:06:38.700Z,12.77
2023-04-19T07:09:06.152Z,12.52
2023-04-19T07:11:33.050Z,13.63
2023-04-19T07:14:02.435Z,12.75
2023-04-19T07:16:29.016Z,13.70
2023-04-19T07:18:55.928Z,13.45
2023-04-19T07:21:24.826Z,14.52
2023-04-19T07:23:51.278Z,13.32
2023-04-19T07:26:18.006Z,13.75
2023-04-19T07:28:44.469Z,12.52
2023-04-19T07:31:17.783Z,12.77
2023-04-19T07:33:44.443Z,12.63
2023-04-19T07:36:11.005Z,11.88
2023-04-19T07:38:37.472Z,12.90
2023-04-19T07:41:05.417Z,12.35
2023-04-19T07:43:31.941Z,11.85
2023-04-19T07:45:58.462Z,12.10
2023-04-19T07:48:25.198Z,12.63
2023-04-19T07:50:51.987Z,12.25
2023-04-19T07:53:18.585Z,11.63
2023-04-19T07:55:45.703Z,12.25
2023-04-19T07:58:12.142Z,11.55
2023-04-19T08:00:38.584Z,11.88
2023-04-19T08:03:05.184Z,11.75
2023-04-19T08:05:31.981Z,10.90
2023-04-19T08:07:58.550Z,11.57
2023-04-19T08:10:25.883Z,11.23
2023-04-19T08:13:05.031Z,11.45
2023-04-19T08:18:04.941Z,11.40
2023-04-19T08:20:32.504Z,10.52
2023-04-19T08:23:04.603Z,11.82
2023-04-19T08:25:37.308Z,12.48
2023-04-19T08:28:04.156Z,12.57
2023-04-19T08:30:30.750Z,12.30
2023-04-19T08:32:57.526Z,11.93
2023-04-19T08:35:25.288Z,11.75
2023-04-19T08:37:51.846Z,12.70
2023-04-19T08:40:18.593Z,13.18
2023-04-19T08:42:45.173Z,12.88
2023-04-19T08:45:27.094Z,13.27
2023-04-19T08:48:01.216Z,12.82
2023-04-19T08:50:34.354Z,13.60
2023-04-19T08:53:16.197Z,12.52
2023-04-19T08:56:03.553Z,13.10
2023-04-19T08:58:56.977Z,13.30
2023-04-19T09:04:02.648Z,12.85
2023-04-19T09:06:40.374Z,13.43
2023-04-19T09:11:48.589Z,12.90
2023-04-19T09:14:16.085Z,13.23
2023-04-19T09:16:45.936Z,12.93
2023-04-19T09:19:23.405Z,13.15
2023-04-19T09:21:53.629Z,12.63
2023-04-19T09:25:04.483Z,12.18
2023-04-19T09:27:26.837Z,13.15
2023-04-19T09:29:54.532Z,13.38
2023-04-19T09:32:23.451Z,12.85
2023-04-19T09:34:53.223Z,12.68
2023-04-19T09:37:32.928Z,13.35
2023-04-19T09:40:23.045Z,12.57
2023-04-19T09:48:05.369Z,13.52
2023-04-19T09:50:46.013Z,13.43
2023-04-19T09:53:20.990Z,12.82
2023-04-19T09:55:57.703Z,12.65
2023-04-19T09:58:34.387Z,12.23
2023-04-19T10:01:14.994Z,12.20
2023-04-19T10:06:14.175Z,12.52
2023-04-19T10:08:47.794Z,12.73
2023-04-19T10:11:14.226Z,12.70
2023-04-19T10:13:41.033Z,13.85
2023-04-19T10:16:18.299Z,14.43
2023-04-19T10:18:46.276Z,14.02
2023-04-19T10:21:13.311Z,14.75
2023-04-19T10:23:39.770Z,15.65
2023-04-19T10:26:07.286Z,16.83
2023-04-19T10:28:35.647Z,17.23
2023-04-19T10:31:02.885Z,18.33
2023-04-19T10:33:32.090Z,17.73
2023-04-19T10:35:59.093Z,18.08
2023-04-19T10:38:37.684Z,17.58
2023-04-19T10:41:05.363Z,17.85
2023-04-19T10:43:32.959Z,18.05
2023-04-19T10:46:01.058Z,17.02
2023-04-19T10:48:38.620Z,19.42
2023-04-19T10:51:14.534Z,19.35
2023-04-19T10:53:44.022Z,21.02
2023-04-19T10:56:10.462Z,19.35
2023-04-19T10:58:55.758Z,18.80
2023-04-19T11:01:39.781Z,19.58
2023-04-19T11:04:07.266Z,19.35
2023-04-19T11:06:34.118Z,19.00
2023-04-19T11:09:01.320Z,19.70
2023-04-19T11:11:27.772Z,20.45
2023-04-19T11:13:55.645Z,16.83
2023-04-19T11:16:31.147Z,17.80
2023-04-19T11:19:04.600Z,16.17
2023-04-19T11:21:33.525Z,16.50
2023-04-19T11:24:07.324Z,16.95
2023-04-19T11:29:03.022Z,14.90
2023-04-19T11:31:32.051Z,14.50
2023-04-19T11:33:59.024Z,15.40
2023-04-19T11:36:25.449Z,14.82
2023-04-19T11:38:52.699Z,12.98
2023-04-19T11:41:19.148Z,12.85
2023-04-19T11:43:46.825Z,11.85
2023-04-19T11:46:13.536Z,10.15
2023-04-19T11:48:49.609Z,9.15
2023-04-19T11:51:16.023Z,9.60
2023-04-19T11:53:42.394Z,9.35
2023-04-19T11:56:09.337Z,8.93
2023-04-19T11:58:48.132Z,9.00
2023-04-19T12:01:25.168Z,9.80
2023-04-19T12:03:52.938Z,9.50
2023-04-19T12:06:23.519Z,9.27
2023-04-19T12:09:06.682Z,9.48
2023-04-19T12:11:46.306Z,9.35
2023-04-19T12:14:13.480Z,8.93
2023-04-19T12:16:40.046Z,4.90
2023-04-19T12:19:17.890Z,3.42
2023-04-19T12:21:45.396Z,3.17
2023-04-19T12:24:12.323Z,3.30
2023-04-19T12:26:53.937Z,3.42
2023-04-19T12:29:24.616Z,3.20
2023-04-19T12:31:51.207Z,3.50
2023-04-19T12:34:17.560Z,3.22
2023-04-19T12:36:43.913Z,3.40
2023-04-19T12:39:10.271Z,3.60
2023-04-19T12:41:36.648Z,3.08
2023-04-19T12:44:03.099Z,3.28
2023-04-19T12:46:32.019Z,3.78
2023-04-19T12:48:58.841Z,3.33
2023-04-19T12:51:25.720Z,3.58
2023-04-19T12:53:52.324Z,3.33
2023-04-19T12:56:21.310Z,3.53
2023-04-19T12:58:47.721Z,3.35
2023-04-19T13:01:14.279Z,3.47
2023-04-19T13:03:43.178Z,4.68
2023-04-19T13:06:11.953Z,3.90
2023-04-19T13:08:44.756Z,2.80
2023-04-19T13:11:15.113Z,2.60
2023-04-19T13:13:41.538Z,2.78
2023-04-19T13:16:08.276Z,2.70
2023-04-19T13:18:34.916Z,3.03
2023-04-19T13:21:01.333Z,2.80
2023-04-19T13:23:27.755Z,2.97
2023-04-19T13:25:54.075Z,2.80
2023-04-19T13:28:20.476Z,2.83
2023-04-19T13:30:46.848Z,2.88
2023-04-19T13:33:13.203Z,2.40
2023-04-19T13:35:39.574Z,2.15
2023-04-19T13:38:06.088Z,2.33
2023-04-19T13:40:32.494Z,2.78
2023-04-19T13:42:58.902Z,2.40
2023-04-19T13:45:25.353Z,7.05
2023-04-19T13:47:51.868Z,4.95
2023-04-19T13:50:18.228Z,4.85
2023-04-19T13:52:44.615Z,2.40
2023-04-19T13:55:10.992Z,2.55
2023-04-19T13:57:37.462Z,2.75
2023-04-19T14:00:04.089Z,3.10
2023-04-19T14:02:30.833Z,2.85
2023-04-19T14:04:59.053Z,3.00
2023-04-19T14:07:25.405Z,3.08
2023-04-19T14:09:51.824Z,2.92
2023-04-19T14:12:18.211Z,3.40
2023-04-19T14:14:44.574Z,2.72
2023-04-19T14:17:10.993Z,3.30
2023-04-19T14:19:37.988Z,3.65
2023-04-19T14:22:04.411Z,3.67
2023-04-19T14:24:30.850Z,3.70
2023-04-19T14:27:10.551Z,3.10
2023-04-19T14:29:37.743Z,3.60
2023-04-19T14:32:17.206Z,3.33
2023-04-19T14:34:51.506Z,3.28
2023-04-19T14:37:18.645Z,3.55
2023-04-19T14:39:45.824Z,3.88
2023-04-19T14:42:12.624Z,3.33
2023-04-19T14:44:39.100Z,3.90
2023-04-19T14:47:05.618Z,3.40
2023-04-19T14:49:31.953Z,4.00
2023-04-19T14:51:58.349Z,3.90
2023-04-19T14:54:27.202Z,4.03
2023-04-19T14:56:53.786Z,3.63
2023-04-19T14:59:20.368Z,4.30
2023-04-19T15:01:46.877Z,4.10
2023-04-19T15:04:13.533Z,4.45
2023-04-19T15:06:40.857Z,4.43
2023-04-19T15:09:07.496Z,4.40
2023-04-19T15:11:33.941Z,3.95
2023-04-19T15:14:00.277Z,4.45
2023-04-19T15:16:26.705Z,3.85
2023-04-19T15:18:53.122Z,4.32
2023-04-19T15:21:21.244Z,4.40
2023-04-19T15:23:49.570Z,4.10
2023-04-19T15:26:16.404Z,4.22
2023-04-19T15:28:42.822Z,4.05
2023-04-19T15:31:10.298Z,3.47
2023-04-19T15:33:37.519Z,4.03
2023-04-19T15:36:04.663Z,4.00
2023-04-19T15:38:31.777Z,5.10
2023-04-19T15:40:58.726Z,5.50
2023-04-19T15:43:27.729Z,4.35
2023-04-19T15:45:54.154Z,4.43
2023-04-19T15:48:21.077Z,4.85
2023-04-19T15:50:47.500Z,4.22
2023-04-19T15:53:14.366Z,4.85
2023-04-19T15:55:41.533Z,4.38
2023-04-19T15:58:08.318Z,5.65
2023-04-19T16:00:34.774Z,4.20
2023-04-19T16:03:01.397Z,5.18
2023-04-19T16:05:28.033Z,6.50
2023-04-19T16:08:01.157Z,4.90
2023-04-19T16:10:27.515Z,3.90
2023-04-19T16:12:53.871Z,4.32
2023-04-19T16:15:20.246Z,4.55
2023-04-19T16:17:56.714Z,4.00
2023-04-19T16:20:23.202Z,6.65
2023-04-19T16:22:52.405Z,9.45
2023-04-19T16:25:20.998Z,4.32
2023-04-19T16:27:49.845Z,28.95
2023-04-19T16:30:16.552Z,9.15
2023-04-19T16:32:43.267Z,5.75
2023-04-19T16:35:10.078Z,5.88
2023-04-19T16:37:36.554Z,5.13
2023-04-19T16:40:05.222Z,4.97
2023-04-19T16:42:31.559Z,4.60
2023-04-19T16:44:57.929Z,5.28
2023-04-19T16:47:24.456Z,5.20
2023-04-19T16:49:50.923Z,5.32
2023-04-19T16:52:17.519Z,5.00
2023-04-19T16:54:44.752Z,5.30
2023-04-19T16:57:11.634Z,5.05
2023-04-19T16:59:38.396Z,6.80
2023-04-19T17:02:06.424Z,6.22
2023-04-19T17:04:33.029Z,4.97
2023-04-19T17:06:59.613Z,5.30
2023-04-19T17:09:26.040Z,5.55
2023-04-19T17:11:52.502Z,5.03
2023-04-19T17:14:21.394Z,5.63
2023-04-19T17:16:47.848Z,5.93
2023-04-19T17:19:14.541Z,6.65
2023-04-19T17:21:41.362Z,7.63
2023-04-19T17:24:07.774Z,6.82
2023-04-19T17:26:36.629Z,6.90
2023-04-19T17:29:03.276Z,8.68
2023-04-19T17:31:29.808Z,7.78
2023-04-19T17:33:56.387Z,10.57
2023-04-19T17:36:22.815Z,8.77
2023-04-19T17:38:49.200Z,6.25
2023-04-19T17:41:18.648Z,6.82
2023-04-19T17:43:45.625Z,7.90
2023-04-19T17:46:12.212Z,6.18
2023-04-19T17:48:38.678Z,6.70
2023-04-19T17:51:07.893Z,9.23
2023-04-19T17:53:36.531Z,7.50
2023-04-19T17:56:04.292Z,6.63
2023-04-19T17:58:30.985Z,7.15
2023-04-19T18:00:57.582Z,6.25
2023-04-19T18:03:26.471Z,5.60
2023-04-19T18:05:53.078Z,5.60
2023-04-19T18:08:19.447Z,6.20
2023-04-19T18:10:45.829Z,6.55
2023-04-19T18:13:12.440Z,6.30
2023-04-19T18:15:38.820Z,6.22
2023-04-19T18:18:05.407Z,7.00
2023-04-19T18:20:32.051Z,6.45
2023-04-19T18:22:59.917Z,7.10
2023-04-19T18:25:26.356Z,6.50
2023-04-19T18:27:52.743Z,6.68
2023-04-19T18:30:19.124Z,6.30
2023-04-19T18:32:47.246Z,7.70
2023-04-19T18:35:13.660Z,7.03
2023-04-19T18:37:40.255Z,7.53
2023-04-19T18:40:07.254Z,7.57
2023-04-19T18:42:33.831Z,6.60
2023-04-19T18:45:00.412Z,6.65
2023-04-19T18:47:26.866Z,6.15
2023-04-19T18:50:04.580Z,4.53
2023-04-19T18:52:33.527Z,4.53
2023-04-19T18:55:00.705Z,5.15
2023-04-19T18:57:27.976Z,6.00
2023-04-19T18:59:57.500Z,4.47
2023-04-19T19:02:24.080Z,4.80
2023-04-19T19:04:57.043Z,5.68
2023-04-19T19:07:35.600Z,6.82
2023-04-19T19:10:10.379Z,9.10
2023-04-19T19:12:43.264Z,4.68
2023-04-19T19:15:09.898Z,4.47
2023-04-19T19:17:36.377Z,4.72
2023-04-19T19:20:04.722Z,4.05
2023-04-19T19:22:31.206Z,4.20
2023-04-19T19:24:57.672Z,4.10
2023-04-19T19:27:24.224Z,4.05
2023-04-19T19:29:50.636Z,4.30
2023-04-19T19:32:17.077Z,4.20
2023-04-19T19:34:54.431Z,3.95
2023-04-19T19:37:22.729Z,4.00
2023-04-19T19:39:49.102Z,4.15
2023-04-19T19:42:16.329Z,4.70
2023-04-19T19:44:43.054Z,3.83
2023-04-19T19:47:10.887Z,4.18
2023-04-19T19:52:07.199Z,3.45
2023-04-19T19:54:33.655Z,3.17
2023-04-19T19:57:56.620Z,3.35
2023-04-19T19:59:51.368Z,4.00
2023-04-19T20:02:21.996Z,3.75
2023-04-19T20:04:48.935Z,3.88
2023-04-19T20:09:45.092Z,3.42
2023-04-19T20:12:13.254Z,3.20
2023-04-19T20:14:40.231Z,3.40
2023-04-19T20:17:06.676Z,2.92
2023-04-19T20:19:33.091Z,3.53
2023-04-19T20:22:00.482Z,3.92
2023-04-19T20:24:27.145Z,3.53
2023-04-19T20:26:57.439Z,3.70
2023-04-19T20:29:23.940Z,3.35
2023-04-19T20:31:50.518Z,3.33
2023-04-19T20:34:16.987Z,3.40
2023-04-19T20:36:46.684Z,3.38
2023-04-19T20:39:13.334Z,3.45
2023-04-19T20:41:41.059Z,3.40
2023-04-19T20:44:07.510Z,3.40
2023-04-19T20:46:36.634Z,3.30
2023-04-19T20:49:05.648Z,5.13
2023-04-19T20:51:32.258Z,3.40
2023-04-19T20:53:58.587Z,3.40
2023-04-19T20:56:25.054Z,3.20
2023-04-19T20:58:51.507Z,3.33
2023-04-19T21:01:18.294Z,3.40
2023-04-19T21:03:44.912Z,3.55
2023-04-19T21:06:11.778Z,3.33
2023-04-19T21:08:38.288Z,3.72
2023-04-19T21:11:04.750Z,4.07
2023-04-19T21:13:32.159Z,4.22
2023-04-19T21:15:58.717Z,4.43
2023-04-19T21:18:25.908Z,5.22
2023-04-19T21:20:52.747Z,5.32
2023-04-19T21:23:19.162Z,5.93
2023-04-19T21:25:45.660Z,4.95
2023-04-19T21:28:11.998Z,4.53
2023-04-19T21:30:40.783Z,3.90
2023-04-19T21:33:07.362Z,3.47
2023-04-19T21:35:33.954Z,3.80
2023-04-19T21:38:00.493Z,3.05
2023-04-19T21:40:26.982Z,3.35
2023-04-19T21:42:55.981Z,3.47
2023-04-19T21:45:27.231Z,3.53
2023-04-19T21:47:56.147Z,3.85
2023-04-19T21:50:22.534Z,3.88
2023-04-19T21:52:48.875Z,4.13
2023-04-19T21:55:15.338Z,4.05
2023-04-19T21:57:44.197Z,4.18
2023-04-19T22:00:10.891Z,4.43
2023-04-19T22:02:37.451Z,3.85
2023-04-19T22:05:04.275Z,4.40
2023-04-19T22:07:31.037Z,4.20
2023-04-19T22:09:57.998Z,3.75
2023-04-19T22:12:24.626Z,4.05
2023-04-19T22:14:51.276Z,4.15
2023-04-19T22:17:18.689Z,4.18
2023-04-19T22:19:45.517Z,4.80
2023-04-19T22:22:11.987Z,4.50
2023-04-19T22:24:50.001Z,4.97
2023-04-19T22:27:22.958Z,4.60
2023-04-19T22:29:49.335Z,4.70
2023-04-19T22:32:15.771Z,4.78
2023-04-19T22:34:42.330Z,4.97
2023-04-19T22:37:08.919Z,5.07
2023-04-19T22:39:35.301Z,5.22
2023-04-19T22:42:02.277Z,5.20
2023-04-19T22:44:28.659Z,5.07
2023-04-19T22:46:58.128Z,4.90
2023-04-19T22:49:24.579Z,5.22
2023-04-19T22:51:51.076Z,4.80
2023-04-19T22:54:17.491Z,4.22
2023-04-19T22:56:43.972Z,4.75
2023-04-19T22:59:10.542Z,4.60
2023-04-19T23:01:36.965Z,5.15
2023-04-19T23:04:03.418Z,4.78
2023-04-19T23:06:30.267Z,4.25
2023-04-19T23:08:56.670Z,5.20
2023-04-19T23:11:25.062Z,4.55
2023-04-19T23:13:54.856Z,4.97
2023-04-19T23:16:24.643Z,4.95
2023-04-19T23:18:51.642Z,4.60
2023-04-19T23:21:18.157Z,5.18
2023-04-19T23:23:44.549Z,4.53
2023-04-19T23:26:11.033Z,4.72
2023-04-19T23:28:37.450Z,5.18
2023-04-19T23:31:03.926Z,5.00
2023-04-19T23:33:30.329Z,5.25
2023-04-19T23:35:56.713Z,5.18
2023-04-19T23:38:23.128Z,5.18
2023-04-19T23:40:49.570Z,5.63
2023-04-19T23:43:15.943Z,5.30
2023-04-19T23:45:42.376Z,5.43
2023-04-19T23:48:08.846Z,5.50
2023-04-19T23:50:37.892Z,5.55
2023-04-19T23:53:05.416Z,5.03
2023-04-19T23:55:31.832Z,4.90
2023-04-19T23:57:58.525Z,4.60
